• Join FlightAware (Why Join?)
  • Login
  • US Flag 
01:53AM EDT


 

Airport Tracker/Info


-or-


 

Live Flight TrackerFlight Track Log ✈ RPA3457 ✈ 20-Apr-2013 ✈ KDCA - KEYW

Flight Track Log - Related Links

Times and Time Zones

All times are in EDT time to prevent confusion due to time zone crossing. See the RPA3457 flight status page for this flight to view local times or setup timezone preferences in your user account.

Time Position Orientation Groundspeed Altitude Reporting Facility
EDT Latitude Longitude Course Direction KTS MPH feet Rate Location/Type
11:08AM 38.8833 -77.0500 233° Southwest 149 171 1,800  Level Potomac TRACON
11:10AM 38.6157 -77.3010 218° Southwest  Level FlightAware Approximate
11:10AM 38.9428 -77.1531 307° West 210 242 6,300  Level Washington Center
11:11AM 38.5312 -77.3861 225° Southwest  Level FlightAware Approximate
11:11AM 38.8817 -77.1997 211° Southwest 151 174 9,400  Level Washington Center
11:12AM 38.4554 -77.4836 225° Southwest  Level FlightAware Approximate
11:13AM 38.3732 -77.5670 233° Southwest  Level FlightAware Approximate
11:13AM 38.7533 -77.2900 209° Southwest 238 274 15,000  Level Washington Center
11:14AM 38.6858 -77.3442 212° Southwest 274 315 17,500 2,280 Climbing Washington Center
11:15AM 38.6183 -77.3958 211° Southwest 294 338 19,600 1,740 Climbing Washington Center
11:16AM 38.5489 -77.4525 213° Southwest 299 344 21,000 900 Climbing Washington Center
11:17AM 38.4811 -77.5067 212° Southwest 299 344 21,400 1,380 Climbing Washington Center
11:18AM 38.4156 -77.5739 219° Southwest 299 344 23,800 2,280 Climbing Washington Center
11:19AM 38.3561 -77.6358 219° Southwest 293 337 26,000 1,800 Climbing Washington Center
11:20AM 38.2967 -77.7003 220° Southwest 288 331 27,400 1,200 Climbing Washington Center
11:21AM 38.2369 -77.7619 219° Southwest 282 325 28,500 1,080 Climbing Washington Center
11:22AM 38.1753 -77.8289 220° Southwest 282 325 29,600 1,080 Climbing Washington Center
11:23AM 38.1117 -77.8956 220° Southwest 288 331 30,700 900 Climbing Washington Center
11:24AM 38.0478 -77.9622 219° Southwest 298 343 31,500 600 Climbing Washington Center
11:25AM 37.9817 -78.0261 217° Southwest 298 343 32,000 240 Climbing Washington Center
11:26AM 37.9156 -78.0950 219° Southwest 308 354 32,000  Level Washington Center
11:27AM 37.8494 -78.1639 219° Southwest 308 354 32,000  Level Washington Center
11:28AM 37.7919 -78.2275 221° Southwest 308 354 32,000  Level Washington Center
11:29AM 37.7192 -78.3064 221° Southwest 308 354 32,000 480 Level Washington Center
11:30AM 37.6508 -78.3722 217° Southwest 308 354 33,000 900 Climbing Washington Center
11:31AM 37.5847 -78.4406 219° Southwest 308 354 33,800 1,080 Climbing Washington Center
11:32AM 37.5225 -78.5064 220° Southwest 308 354 35,200 1,080 Climbing Washington Center
11:33AM 37.4628 -78.5642 218° Southwest 296 341 36,000 360 Climbing Washington Center
11:34AM 37.4092 -78.6194 219° Southwest 290 334 36,000  Level Washington Center
11:35AM 37.3450 -78.6850 219° Southwest 290 334 36,000  Level Washington Center
11:36AM 37.2764 -78.7525 218° Southwest 296 341 36,000  Level Washington Center
11:37AM 37.2078 -78.8228 219° Southwest 310 357 36,000  Level Washington Center
11:38AM 37.1392 -78.8928 219° Southwest 315 362 36,000  Level Washington Center
11:39AM 37.0642 -78.9678 219° Southwest 320 368 36,000  Level Washington Center
11:40AM 36.9953 -79.0375 219° Southwest 320 368 36,000  Level Washington Center
11:41AM 36.9264 -79.1072 219° Southwest 320 368 36,000  Level Washington Center
11:42AM 36.8558 -79.1742 217° Southwest 325 374 36,000  Level Washington Center
11:43AM 36.7889 -79.2411 219° Southwest 325 374 36,000  Level Washington Center
11:44AM 36.7267 -79.3031 219° Southwest 325 374 36,000  Level Washington Center
11:45AM 36.6578 -79.3722 219° Southwest 325 374 36,000  Level Washington Center
11:47AM 36.5169 -79.5078 218° Southwest 327 376 36,000  Level Atlanta Center
11:48AM 36.4406 -79.5844 219° Southwest 327 376 36,000  Level Atlanta Center
11:49AM 36.3700 -79.6528 218° Southwest 327 376 36,000  Level Atlanta Center
11:50AM 36.3036 -79.7208 220° Southwest 327 376 36,000  Level Atlanta Center
11:51AM 36.2331 -79.7917 219° Southwest 327 376 36,000  Level Atlanta Center
11:52AM 36.1703 -79.8514 218° Southwest 327 376 36,000  Level Atlanta Center
11:53AM 36.0997 -79.9167 217° Southwest 327 376 36,000  Level Atlanta Center
11:54AM 36.0267 -79.9822 216° Southwest 333 383 36,000  Level Atlanta Center
11:55AM 35.9447 -80.0247 203° Southwest 328 377 36,000  Level Atlanta Center
11:56AM 35.8503 -80.0703 201° Southwest 328 377 36,000  Level Atlanta Center
11:57AM 35.7681 -80.1128 203° Southwest 328 377 36,000  Level Atlanta Center
11:58AM 35.6839 -80.1550 202° Southwest 328 377 36,000  Level Atlanta Center
11:59AM 35.6081 -80.1969 204° Southwest 335 386 36,000  Level Atlanta Center
12:00PM 35.5239 -80.2392 202° Southwest 334 384 36,000  Level Atlanta Center
12:01PM 35.4397 -80.2814 202° Southwest 334 384 36,000  Level Atlanta Center
12:02PM 35.3472 -80.3289 203° Southwest 329 379 36,000  Level Atlanta Center
12:03PM 35.2608 -80.3708 202° Southwest 329 379 36,000  Level Atlanta Center
12:04PM 35.1744 -80.4128 202° Southwest 329 379 36,000  Level Atlanta Center
12:05PM 35.0172 -80.4922 202° Southwest 340 391 36,000  Level Jacksonville Center
12:06PM 34.9303 -80.5328 201° Southwest 340 391 36,000  Level Jacksonville Center
12:07PM 34.8458 -80.5756 203° Southwest 335 386 36,000  Level Jacksonville Center
12:08PM 34.7733 -80.6153 204° Southwest 324 373 36,000  Level Jacksonville Center
12:09PM 34.6867 -80.6581 202° Southwest 324 373 36,000  Level Jacksonville Center
12:10PM 34.5975 -80.6983 200° South 336 387 36,000  Level Jacksonville Center
12:11PM 34.5128 -80.7408 202° Southwest 346 398 36,000  Level Jacksonville Center
12:12PM 34.4239 -80.7881 204° Southwest 346 398 36,000  Level Jacksonville Center
12:13PM 34.3392 -80.8281 201° Southwest 346 398 36,000  Level Jacksonville Center
12:14PM 34.2603 -80.8650 201° Southwest 334 384 36,000  Level Jacksonville Center
12:15PM 34.1756 -80.9047 201° Southwest 327 376 36,000  Level Jacksonville Center
12:16PM 34.0883 -80.9442 201° Southwest 332 382 36,000  Level Jacksonville Center
12:17PM 33.9994 -80.9889 203° Southwest 332 382 36,000  Level Jacksonville Center
12:18PM 33.9042 -81.0333 201° Southwest 337 388 36,000  Level Jacksonville Center
12:19PM 33.8150 -81.0753 201° Southwest 337 388 36,000  Level Jacksonville Center
12:20PM 33.7383 -81.1169 204° Southwest 337 388 36,000  Level Jacksonville Center
12:21PM 33.6533 -81.1583 202° Southwest 337 388 36,000  Level Jacksonville Center
12:22PM 33.5642 -81.2000 201° Southwest 337 388 36,000  Level Jacksonville Center
12:23PM 33.4750 -81.2467 204° Southwest 337 388 36,000  Level Jacksonville Center
12:24PM 33.3881 -81.2881 202° Southwest 337 388 36,000  Level Jacksonville Center
12:25PM 33.2989 -81.3344 204° Southwest 344 396 36,000  Level Jacksonville Center
12:26PM 33.2136 -81.3756 202° Southwest 344 396 36,000  Level Jacksonville Center
12:27PM 33.1225 -81.4192 202° Southwest 344 396 36,000  Level Jacksonville Center
12:28PM 33.0353 -81.4603 202° Southwest 344 396 36,000  Level Jacksonville Center
12:29PM 32.9417 -81.5064 202° Southwest 351 404 36,000  Level Jacksonville Center
12:30PM 32.8547 -81.5497 203° Southwest 351 404 36,000  Level Jacksonville Center
12:31PM 32.7633 -81.5931 202° Southwest 351 404 36,000  Level Jacksonville Center
12:32PM 32.6758 -81.6364 203° Southwest 351 404 36,000  Level Jacksonville Center
12:33PM 32.5761 -81.6847 202° Southwest 351 404 36,000  Level Jacksonville Center
12:34PM 32.4828 -81.7278 201° Southwest 351 404 36,000  Level Jacksonville Center
12:35PM 32.4017 -81.7681 203° Southwest 351 404 36,000  Level Jacksonville Center
12:36PM 32.3019 -81.8136 201° Southwest 351 404 36,000  Level Jacksonville Center
12:37PM 32.2208 -81.8539 203° Southwest 351 404 36,000  Level Jacksonville Center
12:38PM 32.1189 -81.9017 202° Southwest 351 404 36,000  Level Jacksonville Center
12:39PM 32.0272 -81.9467 203° Southwest 351 404 36,000  Level Jacksonville Center
12:40PM 31.9442 -81.9817 200° South 351 404 36,000  Level Jacksonville Center
12:41PM 31.8378 -82.0244 199° South 356 410 36,000  Level Jacksonville Center
12:42PM 31.7544 -82.0569 198° South 356 410 36,000  Level Jacksonville Center
12:43PM 31.6525 -82.0994 200° South 356 410 36,000  Level Jacksonville Center
12:44PM 31.5567 -82.1392 199° South 372 428 36,000  Level Jacksonville Center
12:45PM 31.4631 -82.1764 199° South 364 419 36,000 -60 Level Jacksonville Center
12:46PM 31.3608 -82.1844 184° South 369 425 35,900  Descending Jacksonville Center
12:47PM 31.2564 -82.2000 187° South 374 430 36,000  Climbing Jacksonville Center
12:48PM 31.1519 -82.2081 184° South 374 430 36,000  Level Jacksonville Center
12:49PM 31.0581 -82.2208 187° South 380 437 36,000  Level Jacksonville Center
12:50PM 30.9539 -82.2311 185° South 380 437 36,000  Level Jacksonville Center
12:51PM 30.8475 -82.2442 186° South 385 443 36,000  Level Jacksonville Center
12:52PM 30.7431 -82.2592 187° South 385 443 36,000 -60 Level Jacksonville Center
12:53PM 30.6386 -82.2697 185° South 385 443 35,900  Descending Jacksonville Center
12:54PM 30.5303 -82.2775 184° South 385 443 36,000  Climbing Jacksonville Center
12:55PM 30.4239 -82.2881 185° South 385 443 36,000  Level Jacksonville Center
12:56PM 30.3172 -82.3031 187° South 385 443 36,000  Level Jacksonville Center
12:57PM 30.2108 -82.3156 186° South 385 443 36,000 300 Level Jacksonville Center
12:58PM 30.1025 -82.3236 184° South 390 449 36,600 480 Climbing Jacksonville Center
12:59PM 29.9939 -82.3289 182° South 390 449 37,000 180 Climbing Jacksonville Center
01:00PM 29.8833 -82.3319 181° South 390 449 37,000  Level Jacksonville Center
01:01PM 29.7706 -82.3350 181° South 402 463 37,000  Level Jacksonville Center
01:02PM 29.6597 -82.3333 179° South 402 463 37,000  Level Jacksonville Center
01:03PM 29.5450 -82.3339 180° South 402 463 37,000  Level Jacksonville Center
01:04PM 29.4344 -82.3369 181° South 402 463 37,000  Level Jacksonville Center
01:05PM 29.3217 -82.3400 181° South 402 463 37,000  Level Jacksonville Center
01:06PM 29.2069 -82.3456 182° South 402 463 37,000  Level Jacksonville Center
01:07PM 29.0942 -82.3461 180° South 402 463 37,000  Level Jacksonville Center
01:08PM 28.9814 -82.3467 180° South 402 463 37,000  Level Jacksonville Center
01:09PM 28.8667 -82.3519 182° South 407 468 37,000  Level Jacksonville Center
01:10PM 28.7519 -82.3503 179° South 412 474 37,000  Level Jacksonville Center
01:11PM 28.6289 -82.3581 183° South 412 474 37,000  Level Jacksonville Center
01:12PM 28.5139 -82.3586 180° South 407 468 37,000  Level Jacksonville Center
01:13PM 28.4014 -82.3617 181° South 407 468 37,000  Level Jacksonville Center
01:16PM 28.1408 -82.3633 180° South 430 495 37,000  Level Miami Center
01:17PM 28.0197 -82.3644 180° South 423 487 37,000  Level Miami Center
01:18PM 27.9003 -82.3281 165° South 423 487 37,000  Level Miami Center
01:19PM 27.7664 -82.2819 163° South 441 507 37,000  Level Miami Center
01:20PM 27.6450 -82.2386 162° South 454 522 37,000  Level Miami Center
01:21PM 27.5358 -82.2008 163° South 454 522 37,000  Level Miami Center
01:22PM 27.4142 -82.1600 163° South 454 522 37,000  Level Miami Center
01:23PM 27.2800 -82.1142 163° South 454 522 37,000  Level Miami Center
01:24PM 27.1586 -82.0714 163° South 454 522 37,000  Level Miami Center
01:25PM 27.0450 -82.0336 164° South 462 532 37,000  Level Miami Center
01:26PM 26.9233 -81.9908 163° South 468 539 37,000  Level Miami Center
01:27PM 26.7975 -81.9528 165° South 468 539 37,000 -360 Level Miami Center
01:28PM 26.6758 -81.9081 162° South 473 544 36,300 -900 Descending Miami Center
01:29PM 26.5583 -81.8706 164° South 460 529 35,300 -1,020 Descending Miami Center
01:30PM 26.4469 -81.8308 162° South 437 503 34,300 -960 Descending Miami Center
01:31PM 26.3356 -81.7914 162° South 425 489 33,400 -960 Descending Miami Center
01:32PM 26.2197 -81.7519 163° South 430 495 32,400 -1,020 Descending Miami Center
01:33PM 26.1042 -81.7147 164° South 430 495 31,400 -1,020 Descending Miami Center
01:34PM 25.9886 -81.6756 163° South 430 495 30,400 -1,020 Descending Miami Center
01:35PM 25.8747 -81.6408 165° South 430 495 29,400 -1,020 Descending Miami Center
01:36PM 25.7675 -81.6044 163° South 419 482 28,400 -1,020 Descending Miami Center
01:37PM 25.6597 -81.5747 166° South 412 474 27,400 -1,140 Descending Miami Center
01:38PM 25.5456 -81.5542 171° South 412 474 26,200 -1,920 Descending Miami Center
01:39PM 25.4272 -81.5336 171° South 418 481 23,600 -2,940 Descending Miami Center
01:40PM 25.3214 -81.5156 171° South 412 474 20,400 -3,420 Descending Miami Center
01:41PM 25.1986 -81.4994 173° South 402 463 16,800 -3,600 Descending Miami Center
01:42PM 25.0953 -81.5322 196° South 395 455 13,300 -3,180 Descending Miami Center
01:43PM 25.0000 -81.5744 202° Southwest 382 440 10,500 -1,740 Descending Miami Center
01:44PM 24.9172 -81.6103 201° Southwest 351 404 9,900 -300 Descending Miami Center
01:45PM 24.8389 -81.6439 201° Southwest 326 375 10,000  Climbing Miami Center
01:46PM 24.7733 -81.6711 201° Southwest 292 336 9,900 -960 Descending Miami Center
01:47PM 24.7036 -81.7003 201° Southwest 287 330 8,100 -1,740 Descending Miami Center
01:48PM 24.6294 -81.7317 201° Southwest 282 325 6,500 -1,680 Descending Miami Center
01:49PM 24.5633 -81.7725 209° Southwest 282 325 4,800 -1,740 Descending Miami Center
01:50PM 24.4906 -81.7650 175° South 261 300 3,100 -1,740 Descending Miami Center
01:52PM 24.5500 -81.7500 North  Level FlightAware Approximate